Time;durP1;ratioP1;P1;durP2;ratioP2;P2;SDS_P1;SDS_P2;PMS_P1;PMS_P2;Temp;Humidity;BMP_temperature;BMP_pressure;BME280_temperature;BME280_humidity;BME280_pressure;Samples;Min_cycle;Max_cycle;Signal;HPM_P1;HPM_P2
2021/09/06 00:00:37;;;;;;;;;;;21.80;99.90;;;;;;5112847;27;19903;-80
2021/09/06 00:03:03;;;;;;;;;;;21.80;99.90;;;;;;5142836;27;19971;-81
2021/09/06 00:05:28;;;;;;;;;;;21.80;99.90;;;;;;5124810;27;19922;-82
2021/09/06 00:07:54;;;;;;;;;;;21.80;99.90;;;;;;5133143;27;19908;-83
2021/09/06 00:10:20;;;;;;;;;;;21.70;99.90;;;;;;5133276;27;19939;-82
2021/09/06 00:12:46;;;;;;;;;;;21.70;99.90;;;;;;5105419;28;19919;-85
2021/09/06 00:15:12;;;;;;;;;;;21.70;99.90;;;;;;5106370;27;19933;-84
2021/09/06 00:17:38;;;;;;;;;;;21.70;99.90;;;;;;5119633;28;19911;-83
2021/09/06 00:20:04;;;;;;;;;;;21.70;99.90;;;;;;5125715;27;19946;-81
2021/09/06 00:22:33;;;;;;;;;;;21.60;99.90;;;;;;5130308;27;19921;-83
2021/09/06 00:25:01;;;;;;;;;;;21.60;99.90;;;;;;5140337;27;19937;-82
2021/09/06 00:27:27;;;;;;;;;;;21.50;99.90;;;;;;5121895;27;19923;-82
2021/09/06 00:29:52;;;;;;;;;;;21.50;99.90;;;;;;5107545;27;20079;-79
2021/09/06 00:32:18;;;;;;;;;;;21.40;99.90;;;;;;5112082;27;19943;-79
2021/09/06 00:34:44;;;;;;;;;;;21.40;99.90;;;;;;5098172;27;19923;-79
2021/09/06 00:37:09;;;;;;;;;;;21.40;99.90;;;;;;5129084;27;19922;-79
2021/09/06 00:39:35;;;;;;;;;;;21.30;99.90;;;;;;5140885;27;19919;-79
2021/09/06 00:42:00;;;;;;;;;;;21.30;99.90;;;;;;5133185;27;19915;-79
2021/09/06 00:44:26;;;;;;;;;;;21.20;99.90;;;;;;5110470;27;19919;-79
2021/09/06 00:46:52;;;;;;;;;;;21.20;99.90;;;;;;5115717;27;20351;-80
2021/09/06 00:49:21;;;;;;;;;;;21.10;99.90;;;;;;5114412;27;19914;-80
2021/09/06 00:51:46;;;;;;;;;;;21.10;99.90;;;;;;5121197;27;20414;-80
2021/09/06 00:54:13;;;;;;;;;;;21.00;99.90;;;;;;5105920;27;20438;-79
2021/09/06 00:56:39;;;;;;;;;;;21.00;99.90;;;;;;5127396;27;19911;-79
2021/09/06 00:59:04;;;;;;;;;;;21.00;99.90;;;;;;5097498;27;19911;-81
2021/09/06 01:01:30;;;;;;;;;;;21.00;99.90;;;;;;5100300;27;20381;-81
2021/09/06 01:03:56;;;;;;;;;;;21.00;99.90;;;;;;5123668;27;19922;-80
2021/09/06 01:06:21;;;;;;;;;;;21.10;99.90;;;;;;5122870;27;20070;-79
2021/09/06 01:08:47;;;;;;;;;;;21.10;99.90;;;;;;5124561;27;20366;-80
2021/09/06 01:11:13;;;;;;;;;;;20.90;99.90;;;;;;5118649;27;19918;-80
2021/09/06 01:13:38;;;;;;;;;;;20.90;99.90;;;;;;5123928;27;19918;-80
2021/09/06 01:16:04;;;;;;;;;;;20.90;99.90;;;;;;5125425;27;19987;-79
2021/09/06 01:18:30;;;;;;;;;;;20.90;99.90;;;;;;5125257;27;19918;-80
2021/09/06 01:20:55;;;;;;;;;;;20.90;99.90;;;;;;5119036;27;19918;-79
2021/09/06 01:23:21;;;;;;;;;;;21.10;99.90;;;;;;5131688;27;19915;-80
2021/09/06 01:25:49;;;;;;;;;;;21.20;99.90;;;;;;5133992;27;20217;-80
2021/09/06 01:28:15;;;;;;;;;;;21.20;99.90;;;;;;5141849;27;19907;-79
2021/09/06 01:30:41;;;;;;;;;;;21.20;99.90;;;;;;5129820;27;19912;-80
2021/09/06 01:33:07;;;;;;;;;;;21.30;99.90;;;;;;5136033;27;19956;-79
2021/09/06 01:35:32;;;;;;;;;;;21.30;99.90;;;;;;5103795;28;19922;-81
2021/09/06 01:37:58;;;;;;;;;;;21.30;99.90;;;;;;5119319;28;19922;-81
2021/09/06 01:40:25;;;;;;;;;;;21.20;99.90;;;;;;5117797;28;19972;-79
2021/09/06 01:42:51;;;;;;;;;;;21.30;99.90;;;;;;5132193;28;19937;-80
2021/09/06 01:45:17;;;;;;;;;;;21.30;99.90;;;;;;5129490;28;19912;-79
2021/09/06 01:47:42;;;;;;;;;;;21.30;99.90;;;;;;5142475;28;19912;-81
2021/09/06 01:50:08;;;;;;;;;;;21.20;99.90;;;;;;5109712;28;19916;-80
2021/09/06 01:52:34;;;;;;;;;;;21.20;99.90;;;;;;5135807;28;19930;-80
2021/09/06 01:55:00;;;;;;;;;;;21.20;99.90;;;;;;5132253;28;20354;-79
2021/09/06 01:57:26;;;;;;;;;;;21.30;99.90;;;;;;5129732;28;19923;-79
2021/09/06 01:59:51;;;;;;;;;;;21.30;99.90;;;;;;5116420;28;19912;-79
2021/09/06 02:02:17;;;;;;;;;;;21.30;99.90;;;;;;5122520;28;20009;-80
2021/09/06 02:04:43;;;;;;;;;;;21.30;99.90;;;;;;5118153;28;19997;-79
2021/09/06 02:07:08;;;;;;;;;;;21.30;99.90;;;;;;5139614;28;19908;-79
2021/09/06 02:09:34;;;;;;;;;;;21.20;99.90;;;;;;5113365;28;20378;-79
2021/09/06 02:12:00;;;;;;;;;;;21.20;99.90;;;;;;5140170;28;19908;-80
2021/09/06 02:14:25;;;;;;;;;;;21.20;99.90;;;;;;5099755;28;19912;-80
2021/09/06 02:16:51;;;;;;;;;;;21.00;99.90;;;;;;5140400;27;20164;-80
2021/09/06 02:19:17;;;;;;;;;;;21.00;99.90;;;;;;5103278;27;19986;-79
2021/09/06 02:21:42;;;;;;;;;;;20.90;99.90;;;;;;5126299;27;19920;-79
2021/09/06 02:24:08;;;;;;;;;;;20.90;99.90;;;;;;5109652;28;19990;-80
2021/09/06 02:26:36;;;;;;;;;;;20.80;99.90;;;;;;5130755;27;19923;-78
2021/09/06 02:29:02;;;;;;;;;;;20.80;99.90;;;;;;5133201;27;19918;-79
2021/09/06 02:31:28;;;;;;;;;;;20.80;99.90;;;;;;5134609;27;19937;-80
2021/09/06 02:33:54;;;;;;;;;;;20.80;99.90;;;;;;5104565;27;19919;-80
2021/09/06 02:36:19;;;;;;;;;;;20.80;99.90;;;;;;5109064;28;19916;-80
2021/09/06 02:38:45;;;;;;;;;;;20.80;99.90;;;;;;5128889;27;19922;-80
2021/09/06 02:41:11;;;;;;;;;;;20.80;99.90;;;;;;5117017;27;19911;-80
2021/09/06 02:43:36;;;;;;;;;;;20.80;99.90;;;;;;5128861;27;19930;-80
2021/09/06 02:46:02;;;;;;;;;;;20.80;99.90;;;;;;5134169;27;20011;-80
2021/09/06 02:48:28;;;;;;;;;;;20.80;99.90;;;;;;5117762;27;19922;-80
2021/09/06 02:50:53;;;;;;;;;;;20.70;99.90;;;;;;5116623;27;19920;-79
2021/09/06 02:53:19;;;;;;;;;;;20.70;99.90;;;;;;5135507;27;19959;-80
2021/09/06 02:55:45;;;;;;;;;;;20.60;99.90;;;;;;5137499;27;19912;-79
2021/09/06 02:58:10;;;;;;;;;;;20.60;99.90;;;;;;5148879;27;19911;-82
2021/09/06 03:00:36;;;;;;;;;;;20.70;99.90;;;;;;5139449;27;19942;-81
2021/09/06 03:03:01;;;;;;;;;;;20.70;99.90;;;;;;5143784;27;19915;-81
2021/09/06 03:05:27;;;;;;;;;;;20.70;99.90;;;;;;5131795;27;19920;-80
2021/09/06 03:07:53;;;;;;;;;;;20.70;99.90;;;;;;5134130;27;19967;-81
2021/09/06 03:10:18;;;;;;;;;;;20.70;99.90;;;;;;5114541;27;19920;-80
2021/09/06 03:12:44;;;;;;;;;;;20.70;99.90;;;;;;5114394;27;19979;-80
2021/09/06 03:15:10;;;;;;;;;;;20.60;99.90;;;;;;5101673;28;19919;-79
2021/09/06 03:17:35;;;;;;;;;;;20.60;99.90;;;;;;5131747;27;19912;-80
2021/09/06 03:20:02;;;;;;;;;;;20.50;99.90;;;;;;5103370;28;20457;-80
2021/09/06 03:22:27;;;;;;;;;;;20.50;99.90;;;;;;5120404;27;19916;-80
2021/09/06 03:24:53;;;;;;;;;;;20.50;99.90;;;;;;5137664;27;19907;-80
2021/09/06 03:27:18;;;;;;;;;;;20.50;99.90;;;;;;5127302;27;20380;-79
2021/09/06 03:29:44;;;;;;;;;;;20.50;99.90;;;;;;5102479;28;19919;-80
2021/09/06 03:32:11;;;;;;;;;;;20.50;99.90;;;;;;5123464;27;19918;-80
2021/09/06 03:34:37;;;;;;;;;;;20.40;99.90;;;;;;5125799;27;20052;-79
2021/09/06 03:37:03;;;;;;;;;;;20.40;99.90;;;;;;5111958;27;19951;-79
2021/09/06 03:39:28;;;;;;;;;;;20.40;99.90;;;;;;5105483;28;19923;-80
2021/09/06 03:41:54;;;;;;;;;;;20.40;99.90;;;;;;5133259;27;19911;-80
2021/09/06 03:44:20;;;;;;;;;;;20.40;99.90;;;;;;5133057;27;19911;-80
2021/09/06 03:46:45;;;;;;;;;;;20.50;99.90;;;;;;5139146;27;19933;-79
2021/09/06 03:49:11;;;;;;;;;;;20.50;99.90;;;;;;5133480;27;19912;-80
2021/09/06 03:51:36;;;;;;;;;;;20.50;99.90;;;;;;5094125;28;19915;-81
2021/09/06 03:54:02;;;;;;;;;;;20.50;99.90;;;;;;5120038;27;19992;-80
2021/09/06 03:56:28;;;;;;;;;;;20.60;99.90;;;;;;5141994;27;20380;-80
2021/09/06 03:58:54;;;;;;;;;;;20.50;99.90;;;;;;5108061;27;19920;-79
2021/09/06 04:01:20;;;;;;;;;;;20.50;99.90;;;;;;5102314;27;20014;-79
2021/09/06 04:03:46;;;;;;;;;;;20.50;99.90;;;;;;5117346;28;19959;-79
2021/09/06 04:06:11;;;;;;;;;;;20.50;99.90;;;;;;5097804;28;19919;-80
2021/09/06 04:08:37;;;;;;;;;;;20.50;99.90;;;;;;5126838;27;19911;-79
2021/09/06 04:11:03;;;;;;;;;;;20.50;99.90;;;;;;5131027;27;19911;-81
2021/09/06 04:13:28;;;;;;;;;;;20.50;99.90;;;;;;5128110;27;19919;-80
2021/09/06 04:15:54;;;;;;;;;;;20.40;99.90;;;;;;5128796;27;19919;-79
2021/09/06 04:18:20;;;;;;;;;;;20.40;99.90;;;;;;5103795;27;19932;-79
2021/09/06 04:20:45;;;;;;;;;;;20.30;99.90;;;;;;5117343;27;19911;-79
2021/09/06 04:23:11;;;;;;;;;;;20.20;99.90;;;;;;5127735;27;19922;-79
2021/09/06 04:25:36;;;;;;;;;;;20.00;99.90;;;;;;5113572;27;20357;-80
2021/09/06 04:28:02;;;;;;;;;;;20.00;99.90;;;;;;5102006;27;19911;-79
2021/09/06 04:30:28;;;;;;;;;;;19.90;99.90;;;;;;5131993;27;19938;-79
2021/09/06 04:32:53;;;;;;;;;;;19.90;99.90;;;;;;5092596;27;19942;-79
2021/09/06 04:35:19;;;;;;;;;;;19.90;99.90;;;;;;5105365;28;19961;-80
2021/09/06 04:37:45;;;;;;;;;;;19.90;99.90;;;;;;5136796;27;20368;-79
2021/09/06 04:40:11;;;;;;;;;;;20.00;99.90;;;;;;5136916;27;19930;-79
2021/09/06 04:42:36;;;;;;;;;;;20.00;99.90;;;;;;5128029;27;19922;-80
2021/09/06 04:45:02;;;;;;;;;;;20.00;99.90;;;;;;5134344;27;19916;-80
2021/09/06 04:47:28;;;;;;;;;;;20.00;99.90;;;;;;5121856;27;20302;-80
2021/09/06 04:49:54;;;;;;;;;;;20.00;99.90;;;;;;5134600;27;19919;-79
2021/09/06 04:52:19;;;;;;;;;;;20.00;99.90;;;;;;5112558;27;19912;-79
2021/09/06 04:54:45;;;;;;;;;;;20.00;99.90;;;;;;5125834;27;19912;-79
2021/09/06 04:57:10;;;;;;;;;;;19.90;99.90;;;;;;5128640;27;20322;-80
2021/09/06 04:59:36;;;;;;;;;;;19.90;99.90;;;;;;5104888;27;20389;-79
2021/09/06 05:02:02;;;;;;;;;;;19.90;99.90;;;;;;5102020;27;19918;-80
2021/09/06 05:04:27;;;;;;;;;;;19.90;99.90;;;;;;5128983;27;19916;-80
2021/09/06 05:06:54;;;;;;;;;;;20.00;99.90;;;;;;5131494;27;19916;-80
2021/09/06 05:09:19;;;;;;;;;;;19.90;99.90;;;;;;5140293;27;19908;-79
2021/09/06 05:11:45;;;;;;;;;;;19.90;99.90;;;;;;5105462;28;20002;-79
2021/09/06 05:14:11;;;;;;;;;;;19.90;99.90;;;;;;5098697;27;19966;-79
2021/09/06 05:16:36;;;;;;;;;;;19.90;99.90;;;;;;5131969;27;19911;-79
2021/09/06 05:19:02;;;;;;;;;;;19.90;99.90;;;;;;5139596;27;19907;-79
2021/09/06 05:21:28;;;;;;;;;;;20.00;99.90;;;;;;5094083;28;19920;-79
2021/09/06 05:23:53;;;;;;;;;;;20.00;99.90;;;;;;5106049;28;19924;-79
2021/09/06 05:26:19;;;;;;;;;;;20.10;99.90;;;;;;5125263;28;19911;-79
2021/09/06 05:28:44;;;;;;;;;;;20.10;99.90;;;;;;5136868;27;20318;-79
2021/09/06 05:31:10;;;;;;;;;;;20.10;99.90;;;;;;5109433;28;19937;-79
2021/09/06 05:33:36;;;;;;;;;;;20.10;99.90;;;;;;5094623;27;20373;-79
2021/09/06 05:36:02;;;;;;;;;;;20.10;99.90;;;;;;5111821;27;19911;-78
2021/09/06 05:38:27;;;;;;;;;;;20.20;99.90;;;;;;5130089;27;19915;-79
2021/09/06 05:40:53;;;;;;;;;;;20.30;99.90;;;;;;5103912;28;20258;-80
2021/09/06 05:43:28;;;;;;;;;;;20.40;99.90;;;;;;5128321;28;19939;-79
2021/09/06 05:45:53;;;;;;;;;;;20.40;99.90;;;;;;5122460;28;19981;-79
2021/09/06 05:48:19;;;;;;;;;;;20.50;99.90;;;;;;5139195;28;19907;-79
2021/09/06 05:50:45;;;;;;;;;;;20.50;99.90;;;;;;5101620;28;19951;-80
2021/09/06 05:53:12;;;;;;;;;;;20.60;99.90;;;;;;5113412;27;19911;-80
2021/09/06 05:55:40;;;;;;;;;;;20.80;99.90;;;;;;5140111;27;19907;-79
2021/09/06 05:58:05;;;;;;;;;;;20.80;99.90;;;;;;5111792;28;19913;-79
2021/09/06 06:00:31;;;;;;;;;;;20.80;99.90;;;;;;5125648;27;19920;-78
2021/09/06 06:02:57;;;;;;;;;;;20.80;99.90;;;;;;5130828;27;20558;-79
2021/09/06 06:05:22;;;;;;;;;;;20.90;99.90;;;;;;5109147;27;19912;-79
2021/09/06 06:07:48;;;;;;;;;;;20.80;99.90;;;;;;5110411;27;19924;-79
2021/09/06 06:10:13;;;;;;;;;;;20.90;99.90;;;;;;5101192;27;19923;-80
2021/09/06 06:12:39;;;;;;;;;;;20.90;99.90;;;;;;5145306;27;19907;-79
2021/09/06 06:15:05;;;;;;;;;;;20.90;99.90;;;;;;5141844;27;20433;-79
2021/09/06 06:17:30;;;;;;;;;;;20.90;99.90;;;;;;5131316;27;20390;-80
2021/09/06 06:19:56;;;;;;;;;;;20.90;99.90;;;;;;5123872;27;19911;-79
2021/09/06 06:22:22;;;;;;;;;;;20.90;99.90;;;;;;5125248;27;19920;-79
2021/09/06 06:24:47;;;;;;;;;;;21.00;99.90;;;;;;5121855;27;19916;-80
2021/09/06 06:27:13;;;;;;;;;;;21.00;99.90;;;;;;5133704;27;20463;-80
2021/09/06 06:29:38;;;;;;;;;;;21.10;99.90;;;;;;5125063;27;19912;-80
2021/09/06 06:32:04;;;;;;;;;;;21.30;99.90;;;;;;5133550;27;19918;-79
2021/09/06 06:34:30;;;;;;;;;;;21.40;99.90;;;;;;5138368;27;19976;-79
2021/09/06 06:36:56;;;;;;;;;;;21.40;99.90;;;;;;5121444;27;19924;-79
2021/09/06 06:39:25;;;;;;;;;;;21.50;99.90;;;;;;5122438;27;19912;-79
2021/09/06 06:41:50;;;;;;;;;;;21.50;99.90;;;;;;5118171;27;20264;-80
2021/09/06 06:44:16;;;;;;;;;;;21.60;99.90;;;;;;5121939;27;19911;-79
2021/09/06 06:46:44;;;;;;;;;;;21.60;99.90;;;;;;5133748;27;20340;-79
2021/09/06 06:49:10;;;;;;;;;;;21.60;99.90;;;;;;5112451;28;20717;-81
2021/09/06 06:51:36;;;;;;;;;;;21.70;99.90;;;;;;5110551;27;19920;-80
2021/09/06 06:54:01;;;;;;;;;;;21.80;99.90;;;;;;5134890;27;19961;-80
2021/09/06 06:56:27;;;;;;;;;;;21.90;99.90;;;;;;5137973;27;19918;-80
2021/09/06 06:58:53;;;;;;;;;;;22.10;99.90;;;;;;5132698;27;19930;-80
2021/09/06 07:01:19;;;;;;;;;;;22.20;99.90;;;;;;5123542;27;19918;-79
2021/09/06 07:03:45;;;;;;;;;;;22.30;99.90;;;;;;5122633;27;20404;-79
2021/09/06 07:06:11;;;;;;;;;;;22.30;99.90;;;;;;5109285;27;20010;-80
2021/09/06 07:08:36;;;;;;;;;;;22.30;99.90;;;;;;5107679;27;19939;-80
2021/09/06 07:11:02;;;;;;;;;;;22.40;99.90;;;;;;5142245;27;19912;-80
2021/09/06 07:13:27;;;;;;;;;;;22.30;99.90;;;;;;5123822;27;19923;-81
2021/09/06 07:15:53;;;;;;;;;;;22.50;99.90;;;;;;5110376;27;19983;-80
2021/09/06 07:18:19;;;;;;;;;;;22.60;99.90;;;;;;5111682;27;19911;-79
2021/09/06 07:20:44;;;;;;;;;;;22.70;99.90;;;;;;5113857;27;19933;-80
2021/09/06 07:23:10;;;;;;;;;;;22.80;99.90;;;;;;5112162;27;19920;-80
2021/09/06 07:25:36;;;;;;;;;;;22.90;99.90;;;;;;5113296;27;19920;-80
2021/09/06 07:28:02;;;;;;;;;;;22.90;99.90;;;;;;5111977;27;19974;-80
2021/09/06 07:30:28;;;;;;;;;;;22.90;99.90;;;;;;5090200;28;19958;-80
2021/09/06 07:32:56;;;;;;;;;;;23.10;99.90;;;;;;5110933;27;19919;-79
2021/09/06 07:35:24;;;;;;;;;;;23.10;99.90;;;;;;5093876;28;19912;-80
2021/09/06 07:37:50;;;;;;;;;;;23.10;99.90;;;;;;5108841;27;19987;-79
2021/09/06 07:40:16;;;;;;;;;;;23.10;99.90;;;;;;5106481;28;20310;-80
2021/09/06 07:42:42;;;;;;;;;;;23.20;99.90;;;;;;5091084;28;19924;-80
2021/09/06 07:45:09;;;;;;;;;;;23.40;99.90;;;;;;5107816;27;19911;-79
2021/09/06 07:47:35;;;;;;;;;;;23.50;99.90;;;;;;5085718;28;19937;-81
2021/09/06 07:50:01;;;;;;;;;;;23.70;99.90;;;;;;5104951;27;20377;-81
2021/09/06 07:52:27;;;;;;;;;;;23.70;99.90;;;;;;5079440;28;19919;-80
2021/09/06 07:54:59;;;;;;;;;;;23.80;99.90;;;;;;5123879;27;19999;-78
2021/09/06 07:57:25;;;;;;;;;;;23.90;99.90;;;;;;5078087;28;19994;-78
2021/09/06 07:59:51;;;;;;;;;;;24.00;99.90;;;;;;5120458;27;20002;-80
2021/09/06 08:02:16;;;;;;;;;;;24.00;99.90;;;;;;5098696;27;20010;-79
2021/09/06 08:04:42;;;;;;;;;;;24.10;99.90;;;;;;5110440;27;19982;-79
2021/09/06 08:07:08;;;;;;;;;;;24.10;99.90;;;;;;5104296;27;19954;-79
2021/09/06 08:09:34;;;;;;;;;;;24.20;99.90;;;;;;5110503;27;19924;-81
2021/09/06 08:11:59;;;;;;;;;;;24.20;99.90;;;;;;5108498;27;19984;-81
2021/09/06 08:14:27;;;;;;;;;;;24.20;99.90;;;;;;5107610;27;19923;-80
2021/09/06 08:16:53;;;;;;;;;;;24.20;99.90;;;;;;5106159;27;20374;-79
2021/09/06 08:19:19;;;;;;;;;;;24.30;99.90;;;;;;5088173;28;19912;-80
2021/09/06 08:21:45;;;;;;;;;;;24.40;99.90;;;;;;5088592;28;19927;-79
2021/09/06 08:24:11;;;;;;;;;;;24.60;99.90;;;;;;5108585;27;19915;-79
2021/09/06 08:26:37;;;;;;;;;;;24.80;99.90;;;;;;5129953;27;19934;-80
2021/09/06 08:29:03;;;;;;;;;;;24.80;99.90;;;;;;5114217;28;19955;-78
2021/09/06 08:31:30;;;;;;;;;;;24.80;99.90;;;;;;5119575;27;20006;-79
2021/09/06 08:33:56;;;;;;;;;;;24.90;99.90;;;;;;5131996;27;20311;-77
2021/09/06 08:36:23;;;;;;;;;;;25.00;99.90;;;;;;5113101;27;20320;-79
2021/09/06 08:38:48;;;;;;;;;;;25.10;99.90;;;;;;5106971;27;19919;-81
2021/09/06 08:41:14;;;;;;;;;;;25.20;99.90;;;;;;5115337;27;19920;-78
2021/09/06 08:43:40;;;;;;;;;;;25.40;99.90;;;;;;5126592;27;19912;-79
2021/09/06 08:46:06;;;;;;;;;;;25.30;99.90;;;;;;5120843;27;19926;-80
2021/09/06 08:48:31;;;;;;;;;;;25.40;99.90;;;;;;5115766;28;19961;-79
2021/09/06 08:50:57;;;;;;;;;;;25.60;99.90;;;;;;5127460;27;19947;-77
2021/09/06 08:53:23;;;;;;;;;;;25.60;99.90;;;;;;5105313;28;19908;-80
2021/09/06 08:55:49;;;;;;;;;;;25.60;99.90;;;;;;5090353;27;19919;-78
2021/09/06 08:58:18;;;;;;;;;;;25.70;99.90;;;;;;5106572;28;19912;-79
2021/09/06 09:00:44;;;;;;;;;;;25.80;99.90;;;;;;5124999;28;19914;-78
2021/09/06 09:03:11;;;;;;;;;;;25.90;99.90;;;;;;5126351;28;20163;-79
2021/09/06 09:05:36;;;;;;;;;;;26.00;99.90;;;;;;5127673;27;19907;-82
2021/09/06 09:08:02;;;;;;;;;;;26.10;99.90;;;;;;5123587;27;20533;-79
2021/09/06 09:10:32;;;;;;;;;;;26.10;99.90;;;;;;5135346;27;19922;-82
2021/09/06 09:13:02;;;;;;;;;;;26.20;99.90;;;;;;5108694;27;20288;-80
2021/09/06 09:15:28;;;;;;;;;;;26.20;99.90;;;;;;5123582;27;19916;-81
2021/09/06 09:17:53;;;;;;;;;;;26.20;99.90;;;;;;5129383;27;19922;-82
2021/09/06 09:20:19;;;;;;;;;;;26.20;99.90;;;;;;5119011;27;19934;-81
2021/09/06 09:22:46;;;;;;;;;;;26.20;99.90;;;;;;5141367;27;19934;-80
2021/09/06 09:25:12;;;;;;;;;;;26.20;99.90;;;;;;5126015;27;19920;-80
2021/09/06 09:27:39;;;;;;;;;;;26.30;99.90;;;;;;5098180;27;19912;-80
2021/09/06 09:30:06;;;;;;;;;;;26.20;99.90;;;;;;5118901;27;19915;-80
2021/09/06 09:32:33;;;;;;;;;;;26.20;99.90;;;;;;5123057;28;19976;-82
2021/09/06 09:35:02;;;;;;;;;;;26.30;99.90;;;;;;5133476;27;19963;-78
2021/09/06 09:37:28;;;;;;;;;;;26.30;99.90;;;;;;5114958;28;19963;-78
2021/09/06 09:39:55;;;;;;;;;;;26.40;99.90;;;;;;5096098;28;19926;-78
2021/09/06 09:42:20;;;;;;;;;;;26.40;99.90;;;;;;5109280;27;19911;-78
2021/09/06 09:44:50;;;;;;;;;;;26.50;99.90;;;;;;5125751;28;19921;-79
2021/09/06 09:47:19;;;;;;;;;;;26.40;99.50;;;;;;5102060;28;19911;-79
2021/09/06 09:49:45;;;;;;;;;;;26.50;99.70;;;;;;5110617;28;19935;-82
2021/09/06 09:52:11;;;;;;;;;;;26.60;99.40;;;;;;5115407;28;19912;-80
2021/09/06 09:54:37;;;;;;;;;;;26.50;99.20;;;;;;5129957;28;20285;-80
2021/09/06 09:57:03;;;;;;;;;;;26.50;98.90;;;;;;5078545;28;19916;-80
2021/09/06 09:59:28;;;;;;;;;;;26.60;98.20;;;;;;5133236;28;20014;-81
2021/09/06 10:01:54;;;;;;;;;;;26.50;98.40;;;;;;5138443;27;19923;-81
2021/09/06 10:04:21;;;;;;;;;;;26.50;99.10;;;;;;5131393;28;19941;-82
2021/09/06 10:06:48;;;;;;;;;;;26.70;99.20;;;;;;5134360;28;19970;-81
2021/09/06 10:09:14;;;;;;;;;;;26.80;99.10;;;;;;5131306;28;19951;-82
2021/09/06 10:11:41;;;;;;;;;;;26.80;98.80;;;;;;5138180;28;19919;-80
2021/09/06 10:14:15;;;;;;;;;;;26.90;98.80;;;;;;5142691;28;20119;-80
2021/09/06 10:16:41;;;;;;;;;;;26.90;99.00;;;;;;5111145;28;19911;-79
2021/09/06 10:19:08;;;;;;;;;;;27.10;98.80;;;;;;5110527;28;19926;-81
2021/09/06 10:21:48;;;;;;;;;;;27.00;98.30;;;;;;5118953;28;19922;-81
2021/09/06 10:24:20;;;;;;;;;;;27.00;98.70;;;;;;5105509;28;19916;-81
2021/09/06 10:26:46;;;;;;;;;;;27.00;98.90;;;;;;5137029;28;19912;-81
2021/09/06 10:29:21;;;;;;;;;;;26.90;98.50;;;;;;5147781;28;19915;-80
2021/09/06 10:32:06;;;;;;;;;;;26.80;98.70;;;;;;5140047;28;19911;-81
2021/09/06 10:34:31;;;;;;;;;;;26.80;98.20;;;;;;5131969;28;19908;-81
2021/09/06 10:36:58;;;;;;;;;;;26.80;98.60;;;;;;5137165;27;19990;-82
2021/09/06 10:39:24;;;;;;;;;;;26.90;98.90;;;;;;5116042;28;19916;-81
2021/09/06 10:41:50;;;;;;;;;;;27.20;98.90;;;;;;5138109;27;19973;-81
2021/09/06 10:44:18;;;;;;;;;;;27.40;98.20;;;;;;5138422;27;20006;-81
2021/09/06 10:47:05;;;;;;;;;;;27.50;98.10;;;;;;5143755;27;19911;-82
2021/09/06 10:49:31;;;;;;;;;;;27.40;98.10;;;;;;5149152;27;19912;-81
2021/09/06 10:52:00;;;;;;;;;;;27.50;98.20;;;;;;5139615;27;19911;-81
2021/09/06 10:54:25;;;;;;;;;;;27.70;97.90;;;;;;5122036;28;19911;-80
2021/09/06 10:56:51;;;;;;;;;;;27.60;97.10;;;;;;5136554;27;19918;-80
2021/09/06 10:59:24;;;;;;;;;;;27.50;96.50;;;;;;5139435;27;19967;-81
2021/09/06 11:01:51;;;;;;;;;;;27.50;96.40;;;;;;5115075;27;19981;-81
2021/09/06 11:04:17;;;;;;;;;;;27.50;96.80;;;;;;5115664;27;19930;-81
2021/09/06 11:06:42;;;;;;;;;;;27.70;96.90;;;;;;5140347;27;19911;-81
2021/09/06 11:09:08;;;;;;;;;;;27.80;96.80;;;;;;5138472;27;20320;-81
2021/09/06 11:11:33;;;;;;;;;;;27.90;96.70;;;;;;5144664;27;19927;-82
2021/09/06 11:13:59;;;;;;;;;;;28.00;96.60;;;;;;5150635;27;20356;-82
2021/09/06 11:16:34;;;;;;;;;;;28.30;96.40;;;;;;5114107;28;19920;-83
2021/09/06 11:19:09;;;;;;;;;;;28.10;96.20;;;;;;5127625;27;19928;-84
2021/09/06 11:21:34;;;;;;;;;;;28.00;95.80;;;;;;5139940;27;19983;-83
2021/09/06 11:24:00;;;;;;;;;;;28.00;95.60;;;;;;5124923;27;19922;-83
2021/09/06 11:26:29;;;;;;;;;;;28.00;95.30;;;;;;5126747;27;19979;-83
2021/09/06 11:28:55;;;;;;;;;;;28.00;95.20;;;;;;5149241;27;19912;-82
2021/09/06 11:31:21;;;;;;;;;;;28.00;95.40;;;;;;5122252;28;19920;-82
2021/09/06 11:33:55;;;;;;;;;;;28.10;94.60;;;;;;5106716;27;19958;-81
2021/09/06 11:36:20;;;;;;;;;;;28.20;94.40;;;;;;5108678;27;19926;-82
2021/09/06 11:38:48;;;;;;;;;;;28.30;94.40;;;;;;5117534;27;19912;-83
2021/09/06 11:41:14;;;;;;;;;;;28.40;93.70;;;;;;5096785;28;19940;-80
2021/09/06 11:43:40;;;;;;;;;;;28.20;93.40;;;;;;5129273;27;19946;-82
2021/09/06 11:46:06;;;;;;;;;;;28.10;93.90;;;;;;5135030;27;20000;-81
2021/09/06 11:48:41;;;;;;;;;;;28.10;93.20;;;;;;5136538;27;19919;-80
2021/09/06 11:51:08;;;;;;;;;;;28.00;93.70;;;;;;5110837;28;19967;-81
2021/09/06 11:53:33;;;;;;;;;;;28.20;93.40;;;;;;5102986;28;19947;-85
2021/09/06 11:55:59;;;;;;;;;;;28.20;93.40;;;;;;5122517;28;19982;-81
2021/09/06 11:58:25;;;;;;;;;;;28.30;93.10;;;;;;5133942;27;19908;-81
2021/09/06 12:00:51;;;;;;;;;;;28.50;93.20;;;;;;5120958;28;19943;-81
2021/09/06 12:03:26;;;;;;;;;;;28.70;92.70;;;;;;5128518;27;19969;-81
2021/09/06 12:06:01;;;;;;;;;;;28.40;92.60;;;;;;5125831;28;19923;-80
2021/09/06 12:08:27;;;;;;;;;;;28.30;92.90;;;;;;5123762;28;19944;-80
2021/09/06 12:11:03;;;;;;;;;;;28.50;93.00;;;;;;5129717;28;20356;-81
2021/09/06 12:13:34;;;;;;;;;;;28.50;92.60;;;;;;5126197;28;19918;-81
2021/09/06 12:16:00;;;;;;;;;;;28.50;92.40;;;;;;5126301;28;19911;-81
2021/09/06 12:18:37;;;;;;;;;;;28.40;92.90;;;;;;5128298;28;19943;-80
2021/09/06 12:21:08;;;;;;;;;;;28.50;92.40;;;;;;5125295;28;19911;-80
2021/09/06 12:23:36;;;;;;;;;;;28.60;92.50;;;;;;5127403;28;19926;-81
2021/09/06 12:26:02;;;;;;;;;;;28.80;92.70;;;;;;5124412;28;19919;-81
2021/09/06 12:28:28;;;;;;;;;;;28.90;92.30;;;;;;5129432;28;19961;-80
2021/09/06 12:31:01;;;;;;;;;;;29.00;92.20;;;;;;5128284;28;20003;-80
2021/09/06 12:33:27;;;;;;;;;;;29.00;91.90;;;;;;5124761;27;19947;-80
2021/09/06 12:35:53;;;;;;;;;;;29.10;91.60;;;;;;5123848;28;19983;-81
2021/09/06 12:38:19;;;;;;;;;;;29.30;91.20;;;;;;5115318;28;19950;-80
2021/09/06 12:40:45;;;;;;;;;;;29.40;91.10;;;;;;5124350;28;19908;-80
2021/09/06 12:43:10;;;;;;;;;;;29.50;91.10;;;;;;5126525;28;19916;-80
2021/09/06 12:45:36;;;;;;;;;;;29.20;91.60;;;;;;5128149;28;19943;-80
2021/09/06 12:48:02;;;;;;;;;;;29.00;91.30;;;;;;5128782;28;19934;-82
2021/09/06 12:50:27;;;;;;;;;;;29.10;91.40;;;;;;5129696;28;19916;-81
2021/09/06 12:52:54;;;;;;;;;;;29.20;91.30;;;;;;5127046;28;19911;-80
2021/09/06 12:55:20;;;;;;;;;;;29.20;91.00;;;;;;5127049;28;19918;-81
2021/09/06 12:57:46;;;;;;;;;;;29.30;91.20;;;;;;5128646;28;19947;-81
2021/09/06 13:00:11;;;;;;;;;;;29.30;91.60;;;;;;5119786;28;19911;-81
2021/09/06 13:02:37;;;;;;;;;;;29.40;90.80;;;;;;5127318;28;19982;-83
2021/09/06 13:05:03;;;;;;;;;;;29.50;90.80;;;;;;5129231;27;19946;-80
2021/09/06 13:07:29;;;;;;;;;;;29.60;91.10;;;;;;5124843;28;19908;-82
2021/09/06 13:09:55;;;;;;;;;;;29.60;91.40;;;;;;5128813;28;19923;-80
2021/09/06 13:12:21;;;;;;;;;;;29.60;91.50;;;;;;5129302;28;19900;-81
2021/09/06 13:14:47;;;;;;;;;;;29.20;91.30;;;;;;5127285;28;21374;-81
2021/09/06 13:17:12;;;;;;;;;;;28.90;91.90;;;;;;5109354;28;19946;-79
2021/09/06 13:19:38;;;;;;;;;;;28.90;91.60;;;;;;5110443;28;20333;-79
2021/09/06 13:22:03;;;;;;;;;;;28.90;91.10;;;;;;5115063;27;19915;-79
2021/09/06 13:24:29;;;;;;;;;;;28.80;91.20;;;;;;5115612;27;19915;-80
2021/09/06 13:26:55;;;;;;;;;;;28.70;91.20;;;;;;5108669;28;19912;-80
2021/09/06 13:29:21;;;;;;;;;;;28.70;91.60;;;;;;5103382;27;20419;-80
2021/09/06 13:31:47;;;;;;;;;;;28.80;92.10;;;;;;5105068;28;19908;-81
2021/09/06 13:34:12;;;;;;;;;;;29.00;92.20;;;;;;5118007;28;20369;-82
2021/09/06 13:36:38;;;;;;;;;;;29.20;91.90;;;;;;5109412;27;19922;-83
2021/09/06 13:39:04;;;;;;;;;;;29.00;92.20;;;;;;5108769;28;19915;-82
2021/09/06 13:41:30;;;;;;;;;;;28.70;92.60;;;;;;5141286;28;19946;-81
2021/09/06 13:43:55;;;;;;;;;;;28.50;92.40;;;;;;5147009;28;19964;-81
2021/09/06 13:46:21;;;;;;;;;;;28.40;92.00;;;;;;5132348;28;19899;-81
2021/09/06 13:48:47;;;;;;;;;;;28.20;92.20;;;;;;5115615;28;20012;-80
2021/09/06 13:51:12;;;;;;;;;;;28.20;92.10;;;;;;5114499;28;19912;-82
2021/09/06 13:53:40;;;;;;;;;;;28.10;92.50;;;;;;5147198;28;19927;-81
2021/09/06 13:56:09;;;;;;;;;;;28.20;92.50;;;;;;5131790;28;19915;-82
2021/09/06 13:58:35;;;;;;;;;;;28.20;91.70;;;;;;5135719;28;20304;-82
2021/09/06 14:01:01;;;;;;;;;;;28.30;91.40;;;;;;5130044;28;19911;-81
2021/09/06 14:03:26;;;;;;;;;;;28.40;92.00;;;;;;5105617;28;19916;-80
2021/09/06 14:05:52;;;;;;;;;;;28.50;91.80;;;;;;5147298;28;19895;-80
2021/09/06 14:08:18;;;;;;;;;;;28.40;91.20;;;;;;5133475;28;19954;-82
2021/09/06 14:10:43;;;;;;;;;;;28.50;91.40;;;;;;5136211;28;19965;-84